Terminal Aerodrome Forecast
Issued by NWS

Home | Current Version | Previous Version | Text Only | Print | Product List | Glossary On
Versions: 1 2 3 4 5 6 7 8 9 10 11 12 13 14 15 16 17 18 19 20 21 22 23 24 25 26
323
FTUS42 KCAE 062339
TAFDNL
TAF
KDNL 062339Z 0700/0724 02008KT P6SM VCSH OVC035
     FM070600 02009KT P6SM VCSH OVC035
     FM071200 01010KT P6SM BKN045
     FM071600 34011G20KT P6SM SCT100 BKN250
     FM072300 31007KT P6SM SKC=

USA.gov is the U.S. government's official web portal to all federal, state and local government web resources and services.